Time;durP1;ratioP1;P1;durP2;ratioP2;P2;SDS_P1;SDS_P2;PMS_P1;PMS_P2;Temp;Humidity;BMP_temperature;BMP_pressure;BME280_temperature;BME280_humidity;BME280_pressure;Samples;Min_cycle;Max_cycle;Signal;HPM_P1;HPM_P2
2022/10/20 00:00:00;;;;;;;7.03;5.47;;;7.60;99.90;;;;;;5054839;28;20124;-77
2022/10/20 00:02:26;;;;;;;9.15;6.28;;;7.50;99.90;;;;;;5054712;28;20115;-78
2022/10/20 00:04:51;;;;;;;7.20;5.82;;;7.40;99.90;;;;;;5055026;28;20037;-77
2022/10/20 00:07:17;;;;;;;9.45;5.45;;;7.40;99.90;;;;;;5054771;28;20120;-77
2022/10/20 00:09:43;;;;;;;9.40;6.15;;;7.40;99.90;;;;;;5054954;28;20052;-78
2022/10/20 00:12:08;;;;;;;9.48;5.53;;;7.40;99.90;;;;;;5054708;28;20055;-77
2022/10/20 00:14:34;;;;;;;7.68;5.15;;;7.40;99.90;;;;;;5054568;28;20497;-78
2022/10/20 00:17:00;;;;;;;7.63;6.05;;;7.30;99.90;;;;;;5054723;28;20513;-77
2022/10/20 00:19:27;;;;;;;7.95;5.97;;;7.40;99.90;;;;;;5053200;28;20402;-78
2022/10/20 00:21:53;;;;;;;5.93;5.25;;;7.40;99.90;;;;;;5054270;28;20053;-77
2022/10/20 00:24:20;;;;;;;8.82;5.75;;;7.30;99.90;;;;;;5070215;28;20129;-77
2022/10/20 00:26:46;;;;;;;7.55;5.57;;;7.20;99.90;;;;;;5054065;28;20106;-77
2022/10/20 00:29:12;;;;;;;7.10;5.13;;;7.20;99.90;;;;;;5052914;28;20359;-77
2022/10/20 00:31:38;;;;;;;10.52;5.82;;;7.20;99.90;;;;;;5054233;28;20052;-78
2022/10/20 00:34:04;;;;;;;11.20;6.10;;;7.20;99.90;;;;;;5054699;28;20042;-77
2022/10/20 00:36:29;;;;;;;8.27;5.93;;;7.20;99.90;;;;;;5054368;28;20548;-77
2022/10/20 00:39:00;;;;;;;9.20;5.72;;;7.10;99.90;;;;;;5053904;28;20359;-77
2022/10/20 00:41:27;;;;;;;8.60;6.32;;;7.20;99.90;;;;;;5054253;28;20084;-77
2022/10/20 00:43:56;;;;;;;7.65;6.10;;;7.10;99.90;;;;;;5053798;28;20053;-77
2022/10/20 00:46:42;;;;;;;8.23;5.88;;;7.10;99.90;;;;;;5053785;28;20049;-77
2022/10/20 00:49:15;;;;;;;7.10;5.70;;;7.10;99.90;;;;;;5054101;28;20136;-77
2022/10/20 00:51:42;;;;;;;9.65;5.68;;;7.10;99.90;;;;;;5054225;28;20051;-77
2022/10/20 00:54:12;;;;;;;8.07;6.10;;;7.00;99.90;;;;;;5053323;28;20130;-77
2022/10/20 00:56:42;;;;;;;8.45;5.68;;;7.00;99.90;;;;;;5052198;28;20037;-77
2022/10/20 00:59:09;;;;;;;10.27;5.65;;;7.00;99.90;;;;;;5053372;28;20037;-77
2022/10/20 01:01:37;;;;;;;8.73;5.57;;;7.00;99.90;;;;;;5053387;28;20061;-77
2022/10/20 01:04:02;;;;;;;9.20;5.95;;;7.00;99.90;;;;;;5053587;28;20101;-77
2022/10/20 01:06:28;;;;;;;8.18;5.55;;;7.00;99.90;;;;;;5051422;28;20124;-76
2022/10/20 01:08:54;;;;;;;12.02;5.93;;;6.90;99.90;;;;;;5054042;28;20499;-77
2022/10/20 01:11:37;;;;;;;7.32;5.57;;;6.90;99.90;;;;;;5053251;28;20040;-77
2022/10/20 01:14:24;;;;;;;7.25;6.03;;;6.90;99.90;;;;;;5053783;28;20163;-77
2022/10/20 01:16:56;;;;;;;6.15;4.95;;;6.90;99.90;;;;;;5053462;28;20052;-78
2022/10/20 01:19:40;;;;;;;11.32;6.13;;;6.90;99.90;;;;;;5053112;28;20083;-77
2022/10/20 01:22:11;;;;;;;;;;;6.80;99.90;;;;;;5053399;28;20360;-76
2022/10/20 01:24:43;;;;;;;9.82;5.70;;;6.80;99.90;;;;;;5052080;28;19928;-77
2022/10/20 01:27:25;;;;;;;9.93;6.25;;;6.80;99.90;;;;;;5053205;28;20045;-77
2022/10/20 01:30:21;;;;;;;8.30;5.80;;;6.80;99.90;;;;;;5053601;28;20440;-77
2022/10/20 01:33:12;;;;;;;7.65;5.47;;;6.80;99.90;;;;;;5040883;28;20053;-78
2022/10/20 01:35:47;;;;;;;7.30;5.43;;;6.80;99.90;;;;;;5053930;28;20037;-77
2022/10/20 01:38:20;;;;;;;7.75;5.93;;;6.80;99.90;;;;;;5053836;28;20053;-78
2022/10/20 01:41:23;;;;;;;8.98;5.97;;;6.70;99.90;;;;;;5052750;28;20477;-78
2022/10/20 01:43:50;;;;;;;8.20;6.03;;;6.70;99.90;;;;;;5043280;28;20052;-78
2022/10/20 01:46:18;;;;;;;8.15;5.97;;;6.70;99.90;;;;;;5052831;28;20079;-78
2022/10/20 01:48:46;;;;;;;11.43;6.20;;;6.70;99.90;;;;;;5051557;28;20516;-78
2022/10/20 01:51:11;;;;;;;10.50;6.20;;;6.70;99.90;;;;;;5052628;28;20045;-79
2022/10/20 01:53:37;;;;;;;9.85;5.10;;;6.70;99.90;;;;;;5051688;28;20044;-78
2022/10/20 01:56:05;;;;;;;12.40;6.47;;;6.70;99.90;;;;;;5052909;28;20491;-76
2022/10/20 01:59:00;;;;;;;7.55;5.25;;;6.70;99.90;;;;;;5052519;28;20113;-76
2022/10/20 02:01:40;;;;;;;11.68;6.55;;;6.70;99.90;;;;;;5052865;28;20053;-76
2022/10/20 02:04:08;;;;;;;14.10;6.13;;;6.70;99.90;;;;;;5052747;28;20436;-76
2022/10/20 02:06:52;;;;;;;9.48;6.40;;;6.60;99.90;;;;;;5052297;28;20056;-76
2022/10/20 02:09:37;;;;;;;7.43;6.00;;;6.70;99.90;;;;;;5052733;28;20120;-75
2022/10/20 02:12:26;;;;;;;9.95;6.43;;;6.70;99.90;;;;;;5052604;28;20052;-76
2022/10/20 02:14:53;;;;;;;10.52;6.78;;;6.70;99.90;;;;;;5052306;28;20051;-76
2022/10/20 02:17:19;;;;;;;9.45;6.13;;;6.60;99.90;;;;;;5052200;28;20479;-76
2022/10/20 02:19:48;;;;;;;9.07;5.63;;;6.60;99.90;;;;;;5052179;28;20040;-75
2022/10/20 02:22:16;;;;;;;6.82;5.60;;;6.60;99.90;;;;;;5053001;28;20061;-77
2022/10/20 02:24:44;;;;;;;8.60;6.10;;;6.60;99.90;;;;;;5052216;28;20036;-75
2022/10/20 02:27:14;;;;;;;10.18;6.03;;;6.60;99.90;;;;;;5052196;28;20075;-76
2022/10/20 02:29:54;;;;;;;9.13;6.15;;;6.60;99.90;;;;;;5052757;28;20044;-76
2022/10/20 02:32:21;;;;;;;8.98;6.55;;;6.50;99.90;;;;;;5052548;28;20053;-76
2022/10/20 02:34:47;;;;;;;12.35;6.53;;;6.50;99.90;;;;;;5052389;28;20052;-76
2022/10/20 02:37:12;;;;;;;8.88;6.28;;;6.50;99.90;;;;;;5052590;28;20041;-75
2022/10/20 02:39:38;;;;;;;9.23;5.90;;;6.50;99.90;;;;;;5051941;28;20076;-77
2022/10/20 02:42:05;;;;;;;9.05;6.18;;;6.60;99.90;;;;;;5052175;28;20080;-76
2022/10/20 02:44:31;;;;;;;10.48;6.20;;;6.60;99.90;;;;;;5052118;28;20471;-76
2022/10/20 02:46:56;;;;;;;9.32;6.22;;;6.50;99.90;;;;;;5052293;28;20041;-76
2022/10/20 02:49:24;;;;;;;8.82;6.00;;;6.50;99.90;;;;;;5052019;28;20049;-76
2022/10/20 02:51:50;;;;;;;8.50;5.90;;;6.40;99.90;;;;;;5052110;28;20056;-76
2022/10/20 02:54:15;;;;;;;10.20;6.07;;;6.40;99.90;;;;;;5051642;28;20564;-76
2022/10/20 02:56:41;;;;;;;7.95;6.25;;;6.40;99.90;;;;;;5051834;28;20049;-76
2022/10/20 02:59:18;;;;;;;7.68;5.75;;;6.40;99.90;;;;;;5052071;28;20075;-76
2022/10/20 03:01:43;;;;;;;9.70;6.10;;;6.40;99.90;;;;;;5035124;28;20052;-76
2022/10/20 03:04:09;;;;;;;8.10;6.20;;;6.40;99.90;;;;;;5051925;28;20079;-76
2022/10/20 03:06:35;;;;;;;9.00;6.28;;;6.30;99.90;;;;;;5052231;28;20041;-76
2022/10/20 03:09:01;;;;;;;9.43;6.18;;;6.30;99.90;;;;;;5052432;28;20080;-75
2022/10/20 03:11:27;;;;;;;8.40;5.90;;;6.30;99.90;;;;;;5052067;28;20048;-76
2022/10/20 03:13:52;;;;;;;10.13;5.93;;;6.30;99.90;;;;;;5052370;28;20047;-76
2022/10/20 03:16:18;;;;;;;10.75;5.82;;;6.30;99.90;;;;;;5051780;28;20045;-76
2022/10/20 03:18:44;;;;;;;7.22;6.18;;;6.20;99.90;;;;;;5051469;28;20136;-76
2022/10/20 03:21:09;;;;;;;9.85;6.55;;;6.50;99.90;;;;;;5050835;28;20045;-76
2022/10/20 03:23:35;;;;;;;11.02;6.13;;;6.20;99.90;;;;;;5051849;28;20045;-76
2022/10/20 03:26:02;;;;;;;8.18;6.30;;;6.20;99.90;;;;;;5052021;28;20044;-76
2022/10/20 03:28:28;;;;;;;12.05;6.88;;;6.20;99.90;;;;;;5051306;28;20529;-76
2022/10/20 03:30:53;;;;;;;9.48;6.47;;;6.10;99.90;;;;;;5055317;28;20049;-75
2022/10/20 03:33:19;;;;;;;10.05;6.57;;;6.10;99.90;;;;;;5055457;28;20049;-76
2022/10/20 03:35:45;;;;;;;14.18;7.50;;;6.20;99.90;;;;;;5055935;28;20084;-76
2022/10/20 03:38:10;;;;;;;9.15;6.68;;;6.20;99.90;;;;;;5055364;28;20387;-76
2022/10/20 03:40:36;;;;;;;11.07;6.95;;;6.20;99.90;;;;;;5055344;28;20045;-76
2022/10/20 03:43:02;;;;;;;9.05;7.15;;;6.20;99.90;;;;;;5055118;28;20041;-76
2022/10/20 03:45:27;;;;;;;11.00;7.97;;;6.20;99.90;;;;;;5055373;28;20045;-76
2022/10/20 03:47:53;;;;;;;11.52;8.05;;;6.20;99.90;;;;;;5055191;28;20067;-76
2022/10/20 03:50:18;;;;;;;9.63;6.90;;;6.20;99.90;;;;;;5055018;28;20091;-76
2022/10/20 03:52:47;;;;;;;12.52;7.57;;;6.20;99.90;;;;;;5055070;28;20045;-75
2022/10/20 03:55:13;;;;;;;11.85;7.45;;;6.20;99.90;;;;;;5054818;28;20107;-76
2022/10/20 03:57:38;;;;;;;10.65;8.05;;;6.20;99.90;;;;;;5055125;28;20053;-76
2022/10/20 04:00:05;;;;;;;9.75;8.25;;;6.20;99.90;;;;;;5054274;28;20068;-75
2022/10/20 04:02:34;;;;;;;10.10;8.27;;;6.20;99.90;;;;;;5054291;28;20057;-76
2022/10/20 04:05:00;;;;;;;11.07;7.57;;;6.20;99.90;;;;;;5054461;28;20121;-75
2022/10/20 04:07:26;;;;;;;11.55;7.55;;;6.20;99.90;;;;;;5054302;28;20527;-76
2022/10/20 04:09:52;;;;;;;12.43;7.90;;;6.30;99.90;;;;;;5054404;28;20127;-76
2022/10/20 04:12:17;;;;;;;12.82;8.35;;;6.20;99.90;;;;;;5054057;28;20044;-76
2022/10/20 04:14:43;;;;;;;11.68;8.00;;;6.20;99.90;;;;;;5086814;28;20056;-76
2022/10/20 04:17:09;;;;;;;11.07;8.48;;;6.20;99.90;;;;;;5054389;28;20056;-75
2022/10/20 04:19:34;;;;;;;14.77;8.48;;;6.20;99.90;;;;;;5053885;28;20124;-75
2022/10/20 04:22:00;;;;;;;11.05;8.48;;;6.20;99.90;;;;;;5054243;28;20041;-75
2022/10/20 04:24:26;;;;;;;11.15;8.48;;;6.20;99.90;;;;;;5054034;28;20041;-76
2022/10/20 04:26:51;;;;;;;12.10;9.32;;;6.20;99.90;;;;;;5054239;28;20367;-75
2022/10/20 04:29:17;;;;;;;16.17;9.57;;;6.20;99.90;;;;;;5054005;28;20489;-75
2022/10/20 04:31:43;;;;;;;12.20;8.43;;;6.20;99.90;;;;;;5053797;28;20497;-76
2022/10/20 04:34:09;;;;;;;12.48;8.70;;;6.30;99.90;;;;;;5054193;28;20116;-76
2022/10/20 04:36:34;;;;;;;14.10;9.82;;;6.30;99.90;;;;;;5053785;28;20080;-76
2022/10/20 04:39:00;;;;;;;11.68;9.63;;;6.30;99.90;;;;;;5053697;28;20048;-76
2022/10/20 04:41:26;;;;;;;12.43;9.65;;;6.30;99.90;;;;;;5052867;28;20080;-76
2022/10/20 04:43:52;;;;;;;11.70;8.73;;;6.40;99.90;;;;;;5086148;28;20040;-75
2022/10/20 04:46:18;;;;;;;11.20;9.13;;;6.50;99.90;;;;;;5053476;28;20036;-76
2022/10/20 04:48:44;;;;;;;16.33;9.60;;;6.40;99.90;;;;;;5053354;28;20048;-76
2022/10/20 04:51:12;;;;;;;14.00;9.77;;;6.40;99.90;;;;;;5053586;28;20048;-75
2022/10/20 04:53:38;;;;;;;13.18;9.55;;;6.40;99.90;;;;;;5053528;28;20053;-75
2022/10/20 04:56:06;;;;;;;12.73;9.70;;;6.40;99.90;;;;;;5053227;28;20175;-76
2022/10/20 04:58:33;;;;;;;17.80;11.38;;;6.30;99.90;;;;;;5053707;28;20045;-75
2022/10/20 05:01:08;;;;;;;15.63;9.88;;;6.40;99.90;;;;;;5053372;28;20399;-75
2022/10/20 05:03:35;;;;;;;15.90;10.00;;;6.30;99.90;;;;;;5053281;28;20049;-76
2022/10/20 05:06:33;;;;;;;14.18;10.27;;;6.30;99.90;;;;;;5052826;28;20052;-75
2022/10/20 05:09:02;;;;;;;13.25;10.25;;;6.40;99.90;;;;;;5008330;28;20052;-75
2022/10/20 05:11:29;;;;;;;15.77;10.18;;;6.30;99.90;;;;;;5067904;28;20409;-75
2022/10/20 05:13:55;;;;;;;15.82;10.50;;;6.30;99.90;;;;;;5052999;28;20047;-75
2022/10/20 05:16:21;;;;;;;13.23;10.40;;;6.30;99.90;;;;;;5052789;28;20045;-75
2022/10/20 05:18:47;;;;;;;17.38;10.20;;;6.30;99.90;;;;;;5052804;28;20036;-75
2022/10/20 05:21:16;;;;;;;13.48;10.63;;;6.30;99.90;;;;;;5052984;28;20064;-75
2022/10/20 05:23:42;;;;;;;15.25;10.43;;;6.30;99.90;;;;;;5052582;28;20087;-75
2022/10/20 05:26:11;;;;;;;17.92;10.77;;;6.30;99.90;;;;;;5068219;28;20046;-75
2022/10/20 05:28:38;;;;;;;15.88;10.65;;;6.30;99.90;;;;;;5052717;28;20092;-75
2022/10/20 05:31:06;;;;;;;16.95;11.20;;;6.30;99.90;;;;;;5052693;28;20049;-75
2022/10/20 05:33:32;;;;;;;18.20;11.82;;;6.30;99.90;;;;;;5052564;28;20106;-76
2022/10/20 05:35:58;;;;;;;17.35;11.68;;;6.30;99.90;;;;;;5052404;28;20036;-75
2022/10/20 05:38:24;;;;;;;14.65;12.10;;;6.30;99.90;;;;;;5051953;28;20067;-75
2022/10/20 05:40:49;;;;;;;19.55;12.57;;;6.30;99.90;;;;;;5052827;28;20045;-74
2022/10/20 05:43:15;;;;;;;18.83;11.65;;;6.30;99.90;;;;;;5052658;28;20041;-76
2022/10/20 05:45:41;;;;;;;17.35;11.07;;;6.30;99.90;;;;;;5052124;28;20447;-75
2022/10/20 05:48:06;;;;;;;13.65;10.82;;;6.30;99.90;;;;;;5052723;28;20501;-76
2022/10/20 05:50:32;;;;;;;13.45;11.30;;;6.30;99.90;;;;;;5052896;28;20048;-76
2022/10/20 05:52:58;;;;;;;12.90;10.73;;;6.30;99.90;;;;;;5051985;28;20411;-75
2022/10/20 05:55:24;;;;;;;15.85;11.13;;;6.30;99.90;;;;;;5052284;28;20087;-76
2022/10/20 05:57:50;;;;;;;17.17;11.98;;;6.30;99.90;;;;;;5052582;28;20041;-75
2022/10/20 06:00:22;;;;;;;19.85;11.20;;;6.30;99.90;;;;;;5052475;28;20075;-76
2022/10/20 06:02:48;;;;;;;19.80;12.38;;;6.30;99.90;;;;;;5052435;28;20053;-74
2022/10/20 06:05:13;;;;;;;15.98;10.88;;;6.30;99.90;;;;;;5052371;28;20041;-76
2022/10/20 06:07:39;;;;;;;13.38;11.20;;;6.30;99.90;;;;;;5051993;28;20040;-74
2022/10/20 06:10:05;;;;;;;15.25;11.05;;;6.20;99.90;;;;;;5051818;28;20513;-73
2022/10/20 06:12:31;;;;;;;19.00;12.20;;;6.20;99.90;;;;;;5052349;28;20051;-76
2022/10/20 06:14:56;;;;;;;20.10;11.48;;;6.20;99.90;;;;;;5034852;28;20051;-74
2022/10/20 06:17:22;;;;;;;16.70;12.00;;;6.20;99.90;;;;;;5052049;28;20126;-74
2022/10/20 06:19:47;;;;;;;17.10;12.48;;;6.20;99.90;;;;;;5051679;28;20056;-76
2022/10/20 06:22:13;;;;;;;17.70;12.63;;;6.20;99.90;;;;;;5051723;28;20056;-74
2022/10/20 06:24:39;;;;;;;17.85;12.27;;;6.20;99.90;;;;;;5051609;28;20037;-74
2022/10/20 06:27:04;;;;;;;19.80;12.15;;;6.20;99.90;;;;;;5052015;28;20052;-73
2022/10/20 06:29:30;;;;;;;17.80;11.68;;;6.20;99.90;;;;;;5050807;28;20458;-74
2022/10/20 06:31:56;;;;;;;21.77;12.60;;;6.20;99.90;;;;;;5051739;28;20494;-74
2022/10/20 06:34:23;;;;;;;17.35;12.63;;;6.20;99.90;;;;;;5051498;28;20487;-73
2022/10/20 06:36:49;;;;;;;17.95;11.40;;;6.20;99.90;;;;;;5051544;28;20068;-73
2022/10/20 06:39:21;;;;;;;19.67;11.52;;;6.40;99.90;;;;;;5067045;28;20045;-73
2022/10/20 06:41:51;;;;;;;18.45;11.32;;;6.30;99.90;;;;;;5051603;28;20080;-74
2022/10/20 06:44:18;;;;;;;18.35;12.15;;;6.30;99.90;;;;;;5051852;28;20120;-73
2022/10/20 06:46:44;;;;;;;17.67;12.35;;;6.40;99.90;;;;;;5051668;28;20041;-75
2022/10/20 06:49:10;;;;;;;17.15;11.32;;;6.40;99.90;;;;;;5051324;28;20566;-75
2022/10/20 06:51:36;;;;;;;19.50;10.88;;;6.40;99.90;;;;;;5051378;28;20075;-75
2022/10/20 06:54:03;;;;;;;15.07;10.75;;;6.50;99.90;;;;;;5051548;28;20045;-73
2022/10/20 06:56:30;;;;;;;16.77;11.65;;;6.50;99.90;;;;;;5051890;28;20122;-75
2022/10/20 06:58:58;;;;;;;19.17;11.98;;;6.50;99.90;;;;;;5051311;28;20128;-75
2022/10/20 07:01:37;;;;;;;17.35;12.27;;;6.60;99.90;;;;;;5051044;28;20064;-76
2022/10/20 07:04:05;;;;;;;19.05;12.48;;;6.60;99.90;;;;;;5052059;28;20060;-76
2022/10/20 07:06:34;;;;;;;17.58;11.85;;;6.70;99.90;;;;;;5055285;28;20045;-75
2022/10/20 07:09:02;;;;;;;19.90;13.05;;;6.70;99.90;;;;;;5054932;28;20063;-75
2022/10/20 07:11:29;;;;;;;18.10;11.80;;;6.80;99.90;;;;;;5055304;28;20534;-75
2022/10/20 07:13:57;;;;;;;17.58;12.88;;;6.90;99.90;;;;;;5054950;28;20080;-75
2022/10/20 07:16:25;;;;;;;16.38;12.18;;;6.90;99.90;;;;;;5055090;28;20578;-75
2022/10/20 07:18:51;;;;;;;17.58;10.95;;;7.00;99.90;;;;;;5055146;28;20058;-75
2022/10/20 07:21:20;;;;;;;14.27;11.57;;;7.00;99.90;;;;;;5055423;28;20048;-75
2022/10/20 07:23:47;;;;;;;15.35;10.27;;;7.10;99.90;;;;;;5054881;28;20037;-75
2022/10/20 07:26:21;;;;;;;18.25;11.80;;;7.20;99.90;;;;;;5054036;28;20064;-75
2022/10/20 07:28:50;;;;;;;17.77;11.70;;;7.30;99.90;;;;;;5071042;28;20041;-76
2022/10/20 07:31:22;;;;;;;13.75;10.32;;;7.30;99.90;;;;;;5055214;28;20052;-75
2022/10/20 07:33:48;;;;;;;15.45;10.63;;;7.40;99.90;;;;;;5089259;28;20431;-75
2022/10/20 07:36:20;;;;;;;15.07;10.77;;;7.40;99.90;;;;;;5056629;28;20041;-75
2022/10/20 07:38:47;;;;;;;17.40;10.73;;;7.50;99.90;;;;;;5056853;28;20091;-76
2022/10/20 07:41:14;;;;;;;17.20;11.25;;;7.50;99.90;;;;;;5055115;28;20075;-75
2022/10/20 07:43:40;;;;;;;13.43;10.38;;;7.50;99.90;;;;;;5054543;28;20434;-76
2022/10/20 07:46:07;;;;;;;15.77;11.68;;;7.50;99.90;;;;;;5054624;28;20101;-74
2022/10/20 07:48:33;;;;;;;12.88;9.52;;;7.60;99.90;;;;;;5054660;28;20417;-76
2022/10/20 07:51:15;;;;;;;14.50;10.23;;;7.60;99.90;;;;;;5054758;28;20099;-75
2022/10/20 07:53:41;;;;;;;20.67;10.10;;;7.60;99.90;;;;;;5054381;28;20053;-76
2022/10/20 07:56:07;;;;;;;12.52;10.10;;;7.70;99.90;;;;;;5053604;28;20049;-75
2022/10/20 07:58:33;;;;;;;13.90;10.35;;;7.70;99.90;;;;;;5054621;28;20504;-74
2022/10/20 08:00:59;;;;;;;14.30;10.45;;;7.80;99.90;;;;;;5054037;28;20083;-75
2022/10/20 08:03:24;;;;;;;17.52;11.10;;;7.80;99.90;;;;;;5053915;28;20049;-74
2022/10/20 08:05:50;;;;;;;13.32;9.48;;;7.90;99.90;;;;;;5053473;28;20128;-75
2022/10/20 08:08:16;;;;;;;12.55;9.65;;;8.00;99.90;;;;;;5054212;28;20045;-76
2022/10/20 08:10:41;;;;;;;17.70;10.48;;;8.00;99.90;;;;;;5054148;28;20052;-75
2022/10/20 08:13:07;;;;;;;18.95;10.48;;;8.10;99.90;;;;;;5054484;28;20037;-81
2022/10/20 08:15:32;;;;;;;13.15;9.35;;;8.20;99.90;;;;;;5053689;28;20045;-75
2022/10/20 08:17:58;;;;;;;14.40;9.35;;;8.30;99.90;;;;;;5053907;28;20131;-75
2022/10/20 08:20:24;;;;;;;11.43;8.07;;;8.30;99.90;;;;;;5053988;28;20045;-75
2022/10/20 08:22:49;;;;;;;11.15;7.50;;;8.50;99.90;;;;;;5054412;28;20094;-76
2022/10/20 08:25:15;;;;;;;14.32;9.13;;;8.50;99.90;;;;;;5053939;28;20553;-76
2022/10/20 08:27:41;;;;;;;13.60;7.80;;;8.60;99.90;;;;;;5053858;28;20414;-76
2022/10/20 08:30:08;;;;;;;13.73;9.00;;;8.70;99.90;;;;;;5053366;28;20472;-75
2022/10/20 08:32:34;;;;;;;12.85;8.43;;;8.70;99.90;;;;;;5086038;28;20519;-76
2022/10/20 08:35:00;;;;;;;13.02;9.85;;;8.80;99.90;;;;;;5053718;28;20052;-79
2022/10/20 08:37:28;;;;;;;11.85;7.47;;;8.90;99.90;;;;;;5053930;28;20052;-78
2022/10/20 08:39:53;;;;;;;9.20;7.85;;;9.00;99.90;;;;;;5053986;28;20056;-79
2022/10/20 08:42:20;;;;;;;12.75;8.95;;;9.10;99.90;;;;;;5053622;28;20160;-76
2022/10/20 08:44:47;;;;;;;11.73;7.60;;;9.10;99.90;;;;;;5053160;28;20490;-75
2022/10/20 08:47:30;;;;;;;10.60;7.20;;;9.30;99.90;;;;;;5052103;28;20122;-76
2022/10/20 08:49:56;;;;;;;9.88;7.50;;;9.40;99.90;;;;;;5053459;28;20463;-76
2022/10/20 08:52:24;;;;;;;17.60;7.45;;;9.50;99.90;;;;;;5053199;28;20531;-75
2022/10/20 08:54:56;;;;;;;10.02;7.22;;;9.50;99.90;;;;;;5053106;28;20442;-76
2022/10/20 08:57:26;;;;;;;10.27;7.00;;;9.70;99.90;;;;;;5052736;28;20425;-76
2022/10/20 08:59:53;;;;;;;13.68;8.15;;;9.80;99.90;;;;;;5053332;28;20040;-76
2022/10/20 09:02:20;;;;;;;13.80;8.38;;;9.90;99.90;;;;;;5053057;28;20056;-76
2022/10/20 09:04:51;;;;;;;11.43;6.90;;;10.00;99.90;;;;;;5053145;28;20049;-76
2022/10/20 09:07:21;;;;;;;10.18;7.13;;;10.10;99.90;;;;;;5053084;28;20095;-76
2022/10/20 09:09:47;;;;;;;13.70;7.65;;;10.10;99.90;;;;;;5053208;28;20052;-75
2022/10/20 09:12:14;;;;;;;11.77;7.97;;;10.20;99.90;;;;;;5052933;28;20045;-75
2022/10/20 09:14:40;;;;;;;14.07;7.13;;;10.30;99.90;;;;;;5052820;28;20033;-76
2022/10/20 09:17:15;;;;;;;10.90;6.72;;;10.40;99.90;;;;;;5051586;28;20048;-76
2022/10/20 09:19:47;;;;;;;8.60;6.80;;;10.40;99.90;;;;;;5052776;28;20049;-75
2022/10/20 09:22:14;;;;;;;8.55;6.72;;;10.60;99.90;;;;;;5052472;28;20041;-76
2022/10/20 09:24:42;;;;;;;8.38;5.43;;;10.70;99.90;;;;;;5052540;28;20041;-76
2022/10/20 09:27:23;;;;;;;9.20;6.53;;;10.80;99.90;;;;;;5052229;28;20045;-75
2022/10/20 09:29:48;;;;;;;9.18;6.57;;;10.90;99.90;;;;;;5052563;28;20464;-75
2022/10/20 09:32:32;;;;;;;8.75;6.32;;;11.00;99.90;;;;;;5052999;28;20041;-76
2022/10/20 09:35:38;;;;;;;8.57;6.72;;;11.10;99.90;;;;;;5052493;28;20052;-76
2022/10/20 09:38:18;;;;;;;10.48;6.20;;;11.20;99.90;;;;;;5049558;28;20139;-71
2022/10/20 09:41:17;;;;;;;8.05;5.03;;;11.40;99.90;;;;;;5052703;28;20049;-72
2022/10/20 09:44:00;;;;;;;7.55;6.22;;;11.40;99.90;;;;;;5041363;28;20091;-70
2022/10/20 09:46:29;;;;;;;8.48;6.25;;;11.50;99.90;;;;;;5053202;28;20045;-71
2022/10/20 09:48:55;;;;;;;8.77;6.18;;;11.50;99.90;;;;;;5052920;28;20103;-71
2022/10/20 09:51:24;;;;;;;8.00;6.32;;;11.70;99.90;;;;;;5052676;28;20106;-76
2022/10/20 09:53:49;;;;;;;10.10;6.20;;;11.70;99.90;;;;;;5052626;28;20053;-73
2022/10/20 09:56:30;;;;;;;10.75;7.53;;;11.70;99.90;;;;;;5053000;28;20116;-73
2022/10/20 09:58:58;;;;;;;8.02;5.65;;;11.70;99.90;;;;;;5053254;28;20116;-74
2022/10/20 10:01:24;;;;;;;10.48;6.47;;;11.70;99.90;;;;;;5052679;28;20044;-74
2022/10/20 10:03:51;;;;;;;8.18;6.18;;;11.70;99.90;;;;;;5052437;28;20089;-73
2022/10/20 10:06:37;;;;;;;8.15;5.68;;;11.80;99.90;;;;;;5052406;28;20041;-73
2022/10/20 10:09:31;;;;;;;10.52;5.47;;;11.90;99.90;;;;;;5052534;28;20110;-73
2022/10/20 10:12:04;;;;;;;;;;;11.90;99.90;;;;;;5053186;28;20048;-73
2022/10/20 10:14:34;;;;;;;7.63;5.25;;;12.00;99.90;;;;;;5051978;28;19932;-73
2022/10/20 10:17:00;;;;;;;10.32;6.20;;;12.00;99.90;;;;;;5051619;28;20124;-73
2022/10/20 10:19:29;;;;;;;8.38;5.57;;;12.00;99.90;;;;;;5052021;28;20076;-74
2022/10/20 10:21:57;;;;;;;9.27;5.78;;;12.10;99.90;;;;;;5051764;28;20045;-74
2022/10/20 10:24:29;;;;;;;6.35;5.13;;;12.10;99.90;;;;;;5051646;28;20381;-73
2022/10/20 10:26:56;;;;;;;7.13;5.85;;;12.10;99.90;;;;;;5051536;28;20045;-73
2022/10/20 10:29:28;;;;;;;5.57;4.35;;;12.10;99.90;;;;;;5052126;28;20067;-74
2022/10/20 10:32:00;;;;;;;9.20;4.68;;;11.60;99.90;;;;;;5051606;28;20052;-73
2022/10/20 10:34:33;;;;;;;7.18;5.07;;;12.10;99.90;;;;;;5051508;28;20037;-73
2022/10/20 10:36:59;;;;;;;6.93;5.57;;;12.10;99.90;;;;;;5051876;28;20124;-73
2022/10/20 10:39:27;;;;;;;13.18;6.20;;;12.20;99.90;;;;;;5056655;28;20490;-73
2022/10/20 10:42:20;;;;;;;7.25;5.47;;;12.20;99.90;;;;;;5058929;28;20075;-74
2022/10/20 10:44:58;;;;;;;16.95;5.97;;;12.20;99.90;;;;;;5057046;28;20128;-73
2022/10/20 10:47:41;;;;;;;6.30;4.72;;;12.30;99.90;;;;;;5055770;28;20477;-73
2022/10/20 10:50:33;;;;;;;;;;;12.40;99.90;;;;;;5055810;28;20051;-73
2022/10/20 10:53:16;;;;;;;6.72;4.75;;;12.60;99.90;;;;;;5055658;28;19927;-74
2022/10/20 10:56:02;;;;;;;7.57;5.60;;;12.80;99.90;;;;;;5055180;28;20033;-74
2022/10/20 10:59:11;;;;;;;9.35;4.78;;;13.00;99.90;;;;;;5055273;28;20138;-74
2022/10/20 11:01:39;;;;;;;6.10;5.05;;;13.10;99.90;;;;;;5026227;28;20478;-73
2022/10/20 11:04:42;;;;;;;7.63;5.10;;;13.20;99.90;;;;;;5055065;28;20053;-74
2022/10/20 11:07:18;;;;;;;8.50;5.85;;;13.30;99.90;;;;;;5055126;28;20045;-74
2022/10/20 11:10:06;;;;;;;6.57;5.72;;;13.50;99.90;;;;;;5054223;28;20448;-73
2022/10/20 11:12:50;;;;;;;9.40;6.10;;;13.50;99.90;;;;;;5055366;28;20049;-74
2022/10/20 11:15:25;;;;;;;7.57;5.57;;;13.60;99.90;;;;;;5055647;28;20098;-73
2022/10/20 11:17:50;;;;;;;7.82;5.32;;;13.50;99.90;;;;;;5054565;28;20493;-76
2022/10/20 11:20:24;;;;;;;9.07;6.20;;;13.50;99.90;;;;;;5054735;28;20090;-75
2022/10/20 11:22:50;;;;;;;7.47;6.18;;;13.50;99.90;;;;;;5055322;28;20072;-75
2022/10/20 11:25:53;;;;;;;14.07;5.63;;;13.50;99.90;;;;;;5054832;28;20471;-76
2022/10/20 11:28:28;;;;;;;7.17;5.43;;;13.60;99.90;;;;;;5054863;28;20037;-75
2022/10/20 11:30:57;;;;;;;10.65;6.68;;;13.70;99.90;;;;;;5054709;28;20051;-75
2022/10/20 11:33:31;;;;;;;8.75;6.20;;;13.70;99.90;;;;;;5054249;28;20491;-75
2022/10/20 11:36:03;;;;;;;7.05;5.72;;;13.70;99.90;;;;;;5054956;28;20076;-75
2022/10/20 11:38:50;;;;;;;7.95;5.15;;;13.70;99.90;;;;;;5054545;28;20163;-76
2022/10/20 11:41:44;;;;;;;8.43;6.00;;;13.70;99.90;;;;;;5054525;28;20041;-75
2022/10/20 11:44:26;;;;;;;11.90;5.95;;;13.80;99.90;;;;;;5052390;28;20139;-76
2022/10/20 11:46:58;;;;;;;7.88;6.15;;;13.80;99.90;;;;;;5054691;28;20463;-76
2022/10/20 11:49:24;;;;;;;7.93;6.05;;;13.80;99.90;;;;;;5054839;28;20075;-75
2022/10/20 11:52:21;;;;;;;8.25;6.13;;;13.70;99.90;;;;;;5054392;28;20086;-76
2022/10/20 11:55:08;;;;;;;9.20;6.70;;;13.70;99.90;;;;;;5087101;28;20134;-76
2022/10/20 11:58:07;;;;;;;9.55;6.53;;;13.60;99.90;;;;;;5087593;28;20454;-75
2022/10/20 12:00:54;;;;;;;12.35;6.30;;;13.60;99.90;;;;;;5054407;28;20114;-76
2022/10/20 12:03:34;;;;;;;9.63;6.85;;;13.60;99.90;;;;;;5054907;28;20080;-76
2022/10/20 12:06:35;;;;;;;8.52;6.28;;;13.60;99.90;;;;;;5054047;28;20048;-76
2022/10/20 12:09:15;;;;;;;8.05;5.55;;;13.50;99.90;;;;;;5021581;28;20068;-75
2022/10/20 12:12:11;;;;;;;7.43;5.90;;;13.60;99.90;;;;;;5054497;28;20045;-77
2022/10/20 12:14:41;;;;;;;9.63;7.15;;;13.60;99.90;;;;;;5032224;28;20049;-76
2022/10/20 12:17:19;;;;;;;8.95;5.85;;;13.50;99.90;;;;;;5054662;28;20041;-75
2022/10/20 12:19:49;;;;;;;10.23;6.63;;;13.50;99.90;;;;;;5088021;28;20111;-76
2022/10/20 12:22:15;;;;;;;11.02;7.28;;;13.50;99.90;;;;;;5056493;28;20488;-76
2022/10/20 12:24:52;;;;;;;7.40;6.25;;;13.60;99.90;;;;;;5056690;28;20037;-76
2022/10/20 12:27:21;;;;;;;8.57;6.35;;;13.60;99.90;;;;;;5056355;28;20041;-76
2022/10/20 12:29:54;;;;;;;9.23;6.47;;;13.60;99.90;;;;;;5056650;28;20056;-76
2022/10/20 12:32:36;;;;;;;;;;;13.60;99.90;;;;;;5057173;28;20124;-76
2022/10/20 12:35:22;;;;;;;7.18;6.57;;;13.50;99.90;;;;;;5054692;28;19966;-76
2022/10/20 12:37:57;;;;;;;8.80;6.90;;;13.50;99.90;;;;;;5028512;28;20101;-76
2022/10/20 12:40:33;;;;;;;10.10;6.60;;;13.60;99.90;;;;;;5053442;28;20049;-76
2022/10/20 12:42:59;;;;;;;10.30;7.30;;;13.50;99.90;;;;;;5053805;28;20041;-76
2022/10/20 12:45:43;;;;;;;9.65;6.38;;;13.50;99.90;;;;;;5052960;28;20132;-76
2022/10/20 12:48:22;;;;;;;9.55;6.70;;;13.50;99.90;;;;;;5086688;28;20049;-76
2022/10/20 12:50:50;;;;;;;10.27;7.57;;;13.50;99.90;;;;;;5053445;28;20071;-76
2022/10/20 12:53:27;;;;;;;12.25;7.07;;;13.40;99.90;;;;;;5053129;28;20045;-75
2022/10/20 12:55:57;;;;;;;8.95;6.50;;;13.30;99.90;;;;;;5053011;28;20054;-76
2022/10/20 12:58:31;;;;;;;12.68;7.47;;;13.30;99.90;;;;;;5053145;28;20049;-75
2022/10/20 13:00:57;;;;;;;10.77;7.35;;;13.30;99.90;;;;;;5056744;28;20064;-75
2022/10/20 13:03:42;;;;;;;11.20;7.22;;;13.20;99.90;;;;;;5054486;28;20475;-76
2022/10/20 13:06:25;;;;;;;10.93;7.25;;;13.20;99.90;;;;;;5052984;28;20141;-76